Latest Weather Observations for Hartz Mountains

IDT60801

Issued at 1:01 pm EDT Friday 19 December 2014 (issued every 30 minutes, with the page automatically refreshed every 10 minutes)

About weather observations | Map of weather stations | Latest weather observations for TAS | Other Formats
Station Details ID: 094191 Name: HARTZ MOUNTAIN (KEOGHS PIMPLE) Lat: -43.20 Lon: 146.77 Height: 831.0 m
Data from the previous 72 hours. | See also: Recent months at Hartz Mountains
Date/Time
EDT
Temp
°C
App
Temp
°C
Dew
Point
Rel
Hum
%
Delta-T
°C
Wind Press
QNH
hPa
Press
MSL
hPa
Rain
since 9 am
mm
Dir
 
Spd
km/h
Gust
km/h
Spd
kts
Gust
kts
19/01:00pm 9.8 3.0 5.2 73 2.2 WNW 30 52 16 28 - - 0.6
19/12:33pm 7.2 -0.3 4.3 82 1.3 WSW 33 52 18 28 - - 0.6
19/12:30pm 6.9 -1.3 2.8 75 1.8 WSW 35 46 19 25 - - 0.6
19/12:15pm 7.2 0.6 4.0 80 1.4 W 28 52 15 28 - - 0.6
19/12:00pm 7.5 2.6 5.3 86 1.0 W 20 32 11 17 - - 0.6
19/11:30am 5.2 -0.3 4.0 92 0.5 WSW 22 35 12 19 - - 0.6
19/11:07am 4.7 -2.4 3.7 93 0.4 WSW 30 48 16 26 - - 0.6
19/11:00am 4.7 -2.8 3.7 93 0.4 WSW 32 48 17 26 - - 0.4
19/10:56am 4.7 -2.0 3.7 93 0.4 W 28 48 15 26 - - 0.4
19/10:30am 5.7 -1.8 4.5 92 0.5 WSW 33 46 18 25 - - 0.4
19/10:00am 5.0 -0.9 3.8 92 0.5 W 24 33 13 18 - - 0.2
19/09:30am 7.0 2.1 4.3 83 1.2 W 19 43 10 23 - - 0.0
19/09:00am 5.5 -1.7 3.0 84 1.1 WSW 30 43 16 23 - - 5.2
19/08:30am 4.7 -3.1 2.9 88 0.8 WSW 33 44 18 24 - - 5.2
19/08:00am 4.4 -2.7 3.4 93 0.4 WSW 30 43 16 23 - - 5.2
19/07:30am 3.2 -4.4 2.8 97 0.2 WSW 32 43 17 23 - - 5.2
19/07:00am 3.5 -2.6 2.8 95 0.3 W 24 33 13 18 - - 5.0
19/06:30am 3.0 -3.9 2.3 95 0.3 WSW 28 41 15 22 - - 5.0
19/06:00am 3.0 -5.3 2.4 96 0.3 WSW 35 48 19 26 - - 5.0
19/05:30am 3.0 -4.6 2.6 97 0.2 WSW 32 46 17 25 - - 4.8
19/05:00am 2.9 -5.3 2.6 98 0.1 WSW 35 44 19 24 - - 4.8
19/04:30am 2.9 -4.8 2.5 97 0.2 WSW 32 43 17 23 - - 4.8
19/04:00am 3.1 -5.1 2.7 97 0.2 WSW 35 43 19 23 - - 4.4
19/03:30am 3.3 -4.5 3.0 98 0.1 WSW 33 44 18 24 - - 4.4
19/03:00am 3.2 -3.6 2.9 98 0.1 SW 28 39 15 21 - - 4.4
19/02:30am 3.5 -2.5 3.1 97 0.2 WSW 24 35 13 19 - - 4.0
19/02:00am 3.6 -2.4 3.2 97 0.2 WSW 24 35 13 19 - - 3.8
19/01:30am 3.8 -1.8 3.2 96 0.3 WSW 22 35 12 19 - - 3.6
19/01:00am 3.8 -4.3 3.2 96 0.3 WSW 35 44 19 24 - - 3.6
19/12:30am 4.0 -1.2 3.6 97 0.2 W 20 30 11 16 - - 3.4
19/12:00am 4.2 -0.8 3.6 96 0.3 W 19 35 10 19 - - 3.4
 
Date/Time
EDT
Temp
°C
App
Temp
°C
Dew
Point
Rel
Hum
%
Delta-T
°C
Wind Press
QNH
hPa
Press
MSL
hPa
Rain
since 9 am
mm
Dir
 
Spd
km/h
Gust
km/h
Spd
kts
Gust
kts
18/11:30pm 4.3 -0.9 3.3 93 0.4 W 20 39 11 21 - - 3.2
18/11:00pm 4.1 -2.0 2.8 91 0.6 W 24 39 13 21 - - 3.2
18/10:35pm 4.2 -2.7 2.7 90 0.6 W 28 46 15 25 - - 3.2
18/10:30pm 4.3 -2.2 2.7 89 0.7 W 26 46 14 25 - - 3.2
18/10:07pm 4.1 -2.7 3.2 94 0.4 W 28 57 15 31 - - 3.2
18/10:00pm 4.2 -2.6 3.3 94 0.4 WSW 28 43 15 23 - - 3.2
18/09:30pm 4.5 -4.7 3.5 93 0.4 W 41 63 22 34 - - 3.2
18/09:00pm 5.0 -4.2 3.5 90 0.7 W 41 65 22 35 - - 3.2
18/08:30pm 5.1 -6.2 3.4 89 0.7 WSW 52 74 28 40 - - 3.0
18/08:00pm 5.6 -4.9 3.9 89 0.8 W 48 72 26 39 - - 3.0
18/07:30pm 6.4 -4.7 4.7 89 0.8 W 52 74 28 40 - - 3.0
18/07:00pm 6.3 -4.4 4.8 90 0.7 W 50 69 27 37 - - 3.0
18/06:30pm 6.8 -3.4 5.4 91 0.7 WNW 48 74 26 40 - - 3.0
18/06:00pm 7.3 -4.8 5.9 91 0.7 W 59 83 32 45 - - 3.0
18/05:30pm 6.6 -3.1 5.9 95 0.3 W 46 74 25 40 - - 3.0
18/05:23pm 6.5 -3.2 5.6 94 0.4 W 46 74 25 40 - - 3.0
18/05:22pm 6.5 -3.2 5.6 94 0.4 W 46 70 25 38 - - 3.0
18/05:00pm 6.8 -0.7 6.4 97 0.2 WNW 35 59 19 32 - - 3.0
18/04:59pm 6.8 -0.7 6.4 97 0.2 WNW 35 54 19 29 - - 3.0
18/04:30pm 6.8 -0.3 6.2 96 0.3 WNW 33 48 18 26 - - 2.4
18/04:13pm 6.8 -0.7 6.1 95 0.3 WNW 35 54 19 29 - - 2.4
18/04:00pm 6.9 -0.1 6.0 94 0.4 W 32 46 17 25 - - 2.4
18/03:30pm 7.1 0.0 6.2 94 0.4 W 33 56 18 30 - - 2.4
18/03:07pm 7.6 0.6 7.0 96 0.3 WNW 33 56 18 30 - - 2.4
18/03:00pm 7.8 0.9 7.2 96 0.3 WNW 33 46 18 25 - - 2.2
18/02:37pm 8.0 1.2 6.9 93 0.5 WNW 32 70 17 38 - - 1.6
18/02:30pm 8.4 1.7 7.5 94 0.4 WNW 32 44 17 24 - - 1.6
18/02:00pm 11.1 5.0 6.6 74 2.2 NW 28 52 15 28 - - 0.0
18/01:59pm 11.4 5.1 5.9 69 2.7 NW 28 52 15 28 - - 0.0
18/01:30pm 12.6 8.3 7.9 73 2.4 NNW 20 30 11 16 - - 0.0
18/01:00pm 10.5 5.8 5.9 73 2.2 NW 20 30 11 16 - - 0.0
18/12:30pm 9.9 5.9 6.6 80 1.6 NNW 17 35 9 19 - - 0.0
18/12:00pm 8.9 6.2 5.5 79 1.6 NNE 9 15 5 8 - - 0.0
18/11:30am 9.2 5.9 6.5 83 1.3 N 13 19 7 10 - - 0.0
18/11:00am 9.7 6.7 6.1 78 1.7 N 11 19 6 10 - - 0.0
18/10:30am 10.3 7.2 5.7 73 2.2 N 11 19 6 10 - - 0.0
18/10:00am 10.7 7.5 5.3 69 2.6 NNW 11 20 6 11 - - 0.0
18/09:30am 9.4 6.1 4.6 72 2.2 N 11 17 6 9 - - 0.0
18/09:00am 8.1 4.0 4.3 77 1.7 N 15 22 8 12 - - 0.6
18/08:30am 8.7 5.2 3.7 71 2.3 N 11 17 6 9 - - 0.6
18/08:00am 7.4 2.8 3.6 77 1.7 NNW 17 28 9 15 - - 0.6
18/07:30am 6.7 1.9 2.6 75 1.8 NNW 17 26 9 14 - - 0.6
18/07:00am 5.7 0.4 2.9 82 1.2 NNW 20 28 11 15 - - 0.6
18/06:30am 5.3 -0.8 2.7 83 1.1 NW 24 32 13 17 - - 0.6
18/06:00am 4.7 -1.5 2.4 85 1.0 NW 24 32 13 17 - - 0.6
18/05:30am 4.3 -1.1 2.3 87 0.8 NW 20 26 11 14 - - 0.6
18/05:00am 4.4 -0.9 2.1 85 1.0 NW 19 28 10 15 - - 0.6
18/04:30am 4.4 -1.1 2.1 85 1.0 WNW 20 26 11 14 - - 0.6
18/04:00am 4.5 -1.7 2.0 84 1.1 WNW 24 33 13 18 - - 0.6
18/03:30am 4.4 -0.9 1.9 84 1.0 W 19 32 10 17 - - 0.6
18/03:00am 4.4 -1.5 1.8 83 1.1 WSW 22 30 12 16 - - 0.6
18/02:30am 4.1 -1.4 2.0 86 0.9 W 20 26 11 14 - - 0.6
18/02:00am 4.4 -1.8 1.9 84 1.0 W 24 33 13 18 - - 0.6
18/01:30am 4.1 -0.8 2.0 86 0.9 W 17 20 9 11 - - 0.6
18/01:00am 4.5 -0.8 2.0 84 1.1 WNW 19 26 10 14 - - 0.6
18/12:30am 5.1 -1.9 2.1 81 1.3 WNW 28 33 15 18 - - 0.6
18/12:00am 4.9 -1.3 2.3 83 1.1 NW 24 35 13 19 - - 0.6
 
Date/Time
EDT
Temp
°C
App
Temp
°C
Dew
Point
Rel
Hum
%
Delta-T
°C
Wind Press
QNH
hPa
Press
MSL
hPa
Rain
since 9 am
mm
Dir
 
Spd
km/h
Gust
km/h
Spd
kts
Gust
kts
17/11:30pm 5.1 -1.1 1.9 80 1.4 W 24 32 13 17 - - 0.6
17/11:00pm 5.3 -3.4 2.0 79 1.4 W 37 46 20 25 - - 0.6
17/10:30pm 5.2 -3.0 2.7 84 1.1 WNW 35 46 19 25 - - 0.6
17/10:00pm 5.2 -2.6 2.7 84 1.1 WNW 33 43 18 23 - - 0.6
17/09:30pm 5.0 -2.7 3.3 89 0.7 WNW 33 39 18 21 - - 0.6
17/09:00pm 5.1 -0.4 3.8 91 0.6 NW 22 26 12 14 - - 0.6
17/08:30pm 5.8 -0.9 3.8 87 0.9 WNW 28 37 15 20 - - 0.6
17/08:00pm 7.2 0.2 4.0 80 1.4 WNW 30 39 16 21 - - 0.6
17/07:30pm 7.5 1.3 4.3 80 1.5 WNW 26 39 14 21 - - 0.6
17/07:03pm 5.7 -1.8 3.5 86 1.0 WNW 32 50 17 27 - - 0.6
17/07:00pm 5.7 -2.3 3.7 87 0.9 WNW 35 50 19 27 - - 0.6
17/06:40pm 6.9 -0.4 4.6 85 1.1 W 32 50 17 27 - - 0.6
17/06:30pm 7.2 0.7 4.7 84 1.2 W 28 41 15 22 - - 0.6
17/06:00pm 6.9 1.6 5.1 88 0.8 WNW 22 30 12 16 - - 0.6
17/05:36pm 7.7 0.2 4.3 79 1.6 W 33 52 18 28 - - 0.4
17/05:30pm 7.9 -0.5 3.9 76 1.8 W 37 52 20 28 - - 0.4
17/05:21pm 8.3 1.3 4.1 75 1.9 W 30 50 16 27 - - 0.4
17/05:00pm 9.1 2.0 3.3 67 2.6 WNW 30 41 16 22 - - 0.4
17/04:30pm 10.1 3.1 2.2 58 3.5 WNW 28 46 15 25 - - 0.4
17/04:06pm 11.1 3.9 5.2 67 2.8 WNW 32 50 17 27 - - 0.4
17/04:00pm 10.0 1.3 2.1 58 3.5 WNW 37 50 20 27 - - 0.4
17/03:36pm 11.6 4.6 4.1 60 3.5 WNW 30 48 16 26 - - 0.4
17/03:30pm 10.0 2.7 4.4 68 2.6 WNW 32 46 17 25 - - 0.4
17/03:00pm 10.0 4.0 5.2 72 2.3 W 26 46 14 25 - - 0.4
17/02:33pm 8.7 1.8 2.7 66 2.7 W 28 48 15 26 - - 0.4
17/02:30pm 9.3 3.6 4.7 73 2.2 W 24 46 13 25 - - 0.4
17/02:00pm 9.4 3.8 5.4 76 1.9 W 24 39 13 21 - - 0.4
17/01:30pm 7.2 -0.3 4.2 81 1.4 WNW 33 54 18 29 - - 0.4
17/01:01pm 7.2 0.1 3.6 78 1.6 W 30 50 16 27 - - 0.4
17/01:00pm 7.5 0.4 3.7 77 1.7 W 30 43 16 23 - - 0.4
17/12:36pm 6.8 0.1 3.6 80 1.4 W 28 50 15 27 - - 0.4
17/12:30pm 7.7 2.8 5.2 84 1.2 WNW 20 39 11 21 - - 0.4
17/12:00pm 6.5 0.6 3.8 83 1.2 WSW 24 43 13 23 - - 0.2
17/11:30am 7.4 1.8 3.5 76 1.7 W 22 44 12 24 - - 0.2
17/11:00am 7.0 0.7 5.5 90 0.7 W 28 48 15 26 - - 0.2
17/10:30am 4.4 -3.2 2.6 88 0.8 WNW 32 54 17 29 - - 0.0
17/10:00am 5.3 -1.5 3.2 86 0.9 WSW 28 46 15 25 - - 0.0
17/09:37am 5.3 -3.6 3.0 85 1.0 WSW 39 57 21 31 - - 0.0
17/09:30am 5.2 -4.1 3.1 86 0.9 WSW 41 57 22 31 - - 0.0
17/09:03am 4.4 -3.4 3.1 91 0.6 W 33 52 18 28 - - 0.0
17/09:00am 4.5 -3.2 3.5 93 0.4 W 33 50 18 27 - - 16.4
17/08:30am 3.8 -5.8 3.2 96 0.3 WSW 43 63 23 34 - - 16.4
17/08:00am 3.4 -6.9 2.8 96 0.3 WSW 46 65 25 35 - - 16.2
17/07:30am 3.1 -5.5 2.4 95 0.3 W 37 57 20 31 - - 16.0
17/07:19am 2.8 -5.1 2.4 97 0.2 WSW 33 52 18 28 - - 16.0
17/07:00am 2.9 -3.3 2.3 96 0.3 W 24 37 13 20 - - 15.8
17/06:37am 2.8 -5.5 2.4 97 0.2 W 35 65 19 35 - - 15.8
17/06:30am 3.0 -6.4 2.6 97 0.2 W 41 52 22 28 - - 15.6
17/06:00am 2.9 -4.8 2.2 95 0.3 W 32 48 17 26 - - 15.6
17/05:30am 2.7 -5.0 2.1 96 0.2 W 32 50 17 27 - - 15.4
17/05:00am 2.9 -4.4 2.2 95 0.3 W 30 52 16 28 - - 15.4
17/04:30am 2.9 -5.8 2.0 94 0.4 W 37 69 20 37 - - 15.4
17/04:00am 2.4 -5.4 1.7 95 0.3 W 32 67 17 36 - - 15.4
17/03:58am 2.4 -5.4 1.8 96 0.2 W 32 59 17 32 - - 15.4
17/03:47am 2.3 -7.8 1.4 94 0.4 WSW 44 76 24 41 - - 15.4
17/03:30am 2.6 -9.7 2.0 96 0.2 WSW 56 80 30 43 - - 15.4
17/03:17am 2.9 -5.8 2.2 95 0.3 W 37 83 20 45 - - 15.4
17/03:06am 3.3 -2.8 2.6 95 0.3 W 24 80 13 43 - - 15.4
17/03:00am 3.3 -2.1 2.6 95 0.3 WNW 20 43 11 23 - - 15.4
17/02:43am 3.1 -3.0 2.5 96 0.3 W 24 39 13 21 - - 15.4
17/02:30am 2.9 -7.5 2.2 95 0.3 WSW 46 70 25 38 - - 15.4
17/02:00am 3.7 -6.7 2.2 90 0.6 W 46 76 25 41 - - 15.4
17/01:30am 3.7 -7.5 1.9 88 0.7 W 50 91 27 49 - - 15.4
17/01:01am 3.6 -8.7 2.3 91 0.5 WSW 56 89 30 48 - - 15.4
17/01:00am 3.6 -8.6 2.4 92 0.5 WSW 56 89 30 48 - - 15.4
17/12:34am 4.1 -5.6 3.7 97 0.2 WSW 44 80 24 43 - - 15.2
17/12:30am 4.3 -3.7 3.9 97 0.2 W 35 70 19 38 - - 15.2
17/12:06am 4.7 -2.8 4.3 97 0.2 W 33 57 18 31 - - 15.0
17/12:00am 4.6 -2.0 4.2 97 0.2 W 28 46 15 25 - - 14.8
 
Date/Time
EDT
Temp
°C
App
Temp
°C
Dew
Point
Rel
Hum
%
Delta-T
°C
Wind Press
QNH
hPa
Press
MSL
hPa
Rain
since 9 am
mm
Dir
 
Spd
km/h
Gust
km/h
Spd
kts
Gust
kts
16/11:30pm 4.8 -2.1 4.4 97 0.2 WSW 30 48 16 26 - - 14.6
16/11:00pm 5.2 -2.0 4.8 97 0.2 WSW 32 52 17 28 - - 14.4
16/10:30pm 5.6 -2.9 5.2 97 0.2 W 39 74 21 40 - - 14.0
16/10:04pm 5.6 -2.5 5.2 97 0.2 W 37 85 20 46 - - 13.8
16/10:00pm 5.7 -1.6 5.3 97 0.2 W 33 56 18 30 - - 13.8
16/09:30pm 5.9 -3.5 5.3 96 0.3 W 44 82 24 44 - - 13.8
16/09:20pm 5.8 -3.6 5.2 96 0.3 W 44 74 24 40 - - 13.8
16/09:00pm 5.8 -1.4 5.2 96 0.3 W 32 54 17 29 - - 13.8
16/08:30pm 6.3 -2.8 5.7 96 0.3 W 43 70 23 38 - - 13.8
16/08:00pm 7.1 -2.1 6.2 94 0.4 WNW 44 72 24 39 - - 13.6
16/07:30pm 8.2 -0.8 7.1 93 0.5 WNW 44 69 24 37 - - 13.6
16/07:23pm 8.3 -0.8 6.9 91 0.7 WNW 44 69 24 37 - - 13.6
16/07:00pm 9.1 2.5 7.7 91 0.7 NW 32 50 17 27 - - 13.6
16/06:59pm 9.1 2.4 7.5 90 0.8 NW 32 50 17 27 - - 13.6
16/06:30pm 9.4 0.8 8.0 91 0.7 NW 43 65 23 35 - - 13.6
16/06:00pm 9.3 -1.4 7.9 91 0.7 WNW 54 83 29 45 - - 13.6
16/05:55pm 9.6 -0.9 8.7 94 0.5 WNW 54 83 29 45 - - 13.6
16/05:30pm 9.3 1.6 8.8 97 0.3 WNW 39 65 21 35 - - 13.6
16/05:23pm 9.2 0.7 8.7 97 0.3 W 43 65 23 35 - - 13.6
16/05:22pm 9.2 0.7 8.7 97 0.3 W 43 69 23 37 - - 13.6
16/05:05pm 9.8 0.7 8.4 91 0.7 WNW 46 85 25 46 - - 12.4
16/05:02pm 10.6 3.0 9.0 90 0.8 WNW 39 72 21 39 - - 12.4
16/05:00pm 10.9 4.1 9.2 89 0.9 WNW 35 54 19 29 - - 12.2
16/04:30pm 13.0 3.7 10.4 84 1.4 W 50 69 27 37 - - 12.2
16/04:19pm 12.6 4.7 10.8 89 1.0 W 43 69 23 37 - - 12.2
16/04:04pm 13.2 7.6 11.6 90 0.9 W 32 50 17 27 - - 12.2
16/04:00pm 13.4 7.4 12.0 91 0.8 W 35 52 19 28 - - 12.2
16/03:52pm 13.9 8.5 12.3 90 0.9 WNW 32 50 17 27 - - 12.2
16/03:30pm 12.7 7.1 11.6 93 0.6 W 32 43 17 23 - - 12.2
16/03:00pm 11.7 5.7 10.9 95 0.4 W 33 46 18 25 - - 12.2
16/02:30pm 12.8 8.2 12.3 97 0.3 WSW 28 39 15 21 - - 12.2
16/02:00pm 11.3 6.9 10.4 94 0.5 WSW 24 41 13 22 - - 8.0
16/01:30pm 12.4 10.3 11.3 93 0.6 W 13 28 7 15 - - 6.4

Other Formats:

Comma delimited format used in spreadsheet applications
http://www.bom.gov.au/fwo/IDT60801/IDT60801.94977.axf

JavaScript Object Notation format (JSON) in row-major order
http://www.bom.gov.au/fwo/IDT60801/IDT60801.94977.json